UPSVAC Airport Information Service

San Bernardino International Airport

ICAO: KSBD Country: United States
Latitude: 34.1167 Longitude: -117.233
Latest Arrival : UPS1014 (KFAR-KSBD) Latest Departure : UPS1015 (KSBD-KPDX)


WX CaptureLIVE
Data provided by noaa.gov | Fetched at 22:33:27

METAR : KSBD 112155Z 25008KT 4SM HZ CLR 28/09 A2988

TAF : KSBD 111721Z 1118/1218 VRB04KT 3SM HZ SCT013 FM112100 26011KT 5SM HZ SKC FM120400 VRB05KT P6SM SKC FM121100 VRB03KT 6SM HZ OVC008 FM121630 VRB04KT 4SM HZ SCT010


Runway Data for KSBD
Data provided by openaviationdata.com

Runway ID Mag Var Hdg Length Elevation Surface ILS Freq ILS Id ILS Slope
6 13 56° 9993 ft 1119 ft Asphalt 109.3 ISBD 3
24 13 236° 9993 ft 1119 ft Asphalt -- -- --

San Bernardino International Airport, United States
Use only for reference purposes



Not for navigational purposes.